Time;durP1;ratioP1;P1;durP2;ratioP2;P2;SDS_P1;SDS_P2;PMS_P1;PMS_P2;Temp;Humidity;BMP_temperature;BMP_pressure;BME280_temperature;BME280_humidity;BME280_pressure;Samples;Min_cycle;Max_cycle;Signal;HPM_P1;HPM_P2
2023/03/18 00:00:44;;;;;;;3.75;1.15;;;;;;;;;;5014208;28;20022;-76
2023/03/18 00:03:10;;;;;;;2.08;1.08;;;;;;;;;;5005301;28;20563;-76
2023/03/18 00:05:36;;;;;;;2.30;1.48;;;;;;;;;;5016251;28;20025;-76
2023/03/18 00:08:04;;;;;;;1.63;1.30;;;;;;;;;;5006892;28;20037;-77
2023/03/18 00:10:30;;;;;;;1.58;1.08;;;;;;;;;;5011902;28;20030;-76
2023/03/18 00:12:58;;;;;;;1.85;1.20;;;;;;;;;;5010441;28;20029;-77
2023/03/18 00:15:24;;;;;;;1.70;1.10;;;;;;;;;;5015214;28;20068;-77
2023/03/18 00:17:50;;;;;;;1.17;0.93;;;;;;;;;;5009555;28;20149;-76
2023/03/18 00:20:17;;;;;;;4.40;0.98;;;;;;;;;;5009129;28;20021;-76
2023/03/18 00:22:44;;;;;;;1.17;1.02;;;;;;;;;;5009971;28;20058;-77
2023/03/18 00:25:11;;;;;;;1.40;1.05;;;;;;;;;;5008290;28;20472;-77
2023/03/18 00:27:38;;;;;;;2.13;0.98;;;;;;;;;;5006866;28;20087;-77
2023/03/18 00:30:05;;;;;;;2.78;1.17;;;;;;;;;;5016638;28;20040;-76
2023/03/18 00:32:32;;;;;;;2.58;1.35;;;;;;;;;;5010904;28;20117;-76
2023/03/18 00:35:01;;;;;;;2.05;1.00;;;;;;;;;;5009027;28;20037;-76
2023/03/18 00:37:30;;;;;;;1.55;1.10;;;;;;;;;;5009261;28;20504;-76
2023/03/18 00:40:04;;;;;;;1.75;1.17;;;;;;;;;;5009568;28;20030;-77
2023/03/18 00:42:36;;;;;;;1.20;0.93;;;;;;;;;;4991545;28;20477;-76
2023/03/18 00:45:03;;;;;;;2.22;1.30;;;;;;;;;;5007468;28;20568;-77
2023/03/18 00:47:29;;;;;;;1.40;1.02;;;;;;;;;;5010441;28;20038;-76
2023/03/18 00:49:55;;;;;;;1.50;1.25;;;;;;;;;;5006987;28;20113;-76
2023/03/18 00:52:21;;;;;;;4.18;1.40;;;;;;;;;;5011780;28;20025;-75
2023/03/18 00:54:47;;;;;;;1.15;1.02;;;;;;;;;;5007153;28;20080;-76
2023/03/18 00:57:13;;;;;;;1.80;1.10;;;;;;;;;;5011697;28;20030;-76
2023/03/18 00:59:39;;;;;;;1.27;0.93;;;;;;;;;;5005529;28;20480;-76
2023/03/18 01:02:05;;;;;;;1.88;1.50;;;;;;;;;;5010912;28;20036;-76
2023/03/18 01:04:32;;;;;;;1.92;1.30;;;;;;;;;;5007953;28;20026;-76
2023/03/18 01:06:58;;;;;;;1.23;1.10;;;;;;;;;;5003961;28;20034;-75
2023/03/18 01:09:24;;;;;;;1.63;1.00;;;;;;;;;;5006458;28;20092;-76
2023/03/18 01:11:50;;;;;;;2.50;1.20;;;;;;;;;;5011382;28;20037;-76
2023/03/18 01:14:16;;;;;;;1.83;1.20;;;;;;;;;;5007569;28;20084;-76
2023/03/18 01:16:43;;;;;;;2.22;1.02;;;;;;;;;;5009900;28;20476;-76
2023/03/18 01:19:09;;;;;;;1.55;0.85;;;;;;;;;;5009667;28;20087;-75
2023/03/18 01:21:36;;;;;;;2.38;1.10;;;;;;;;;;5007517;28;20448;-76
2023/03/18 01:24:03;;;;;;;1.05;0.85;;;;;;;;;;5006197;28;20532;-76
2023/03/18 01:26:29;;;;;;;2.33;1.25;;;;;;;;;;5013213;28;20086;-76
2023/03/18 01:28:55;;;;;;;1.20;1.00;;;;;;;;;;5007862;28;20045;-76
2023/03/18 01:31:23;;;;;;;1.88;1.10;;;;;;;;;;5008406;28;20072;-75
2023/03/18 01:33:48;;;;;;;1.25;1.15;;;;;;;;;;5013516;28;20054;-76
2023/03/18 01:36:14;;;;;;;2.00;1.20;;;;;;;;;;5010742;28;20022;-75
2023/03/18 01:38:41;;;;;;;1.23;0.90;;;;;;;;;;5004526;28;20028;-76
2023/03/18 01:41:07;;;;;;;1.02;0.90;;;;;;;;;;5006001;28;20116;-75
2023/03/18 01:43:37;;;;;;;1.70;1.38;;;;;;;;;;5007462;28;20048;-75
2023/03/18 01:46:23;;;;;;;3.38;1.40;;;;;;;;;;5013025;28;20031;-76
2023/03/18 01:48:50;;;;;;;1.38;1.10;;;;;;;;;;5004239;28;20036;-75
2023/03/18 01:51:18;;;;;;;2.58;1.17;;;;;;;;;;5017304;28;20035;-75
2023/03/18 01:53:46;;;;;;;2.42;1.27;;;;;;;;;;5011140;28;20237;-75
2023/03/18 01:56:12;;;;;;;1.65;1.02;;;;;;;;;;5007233;28;20044;-75
2023/03/18 01:58:41;;;;;;;3.90;0.98;;;;;;;;;;5007782;28;20473;-75
2023/03/18 02:01:21;;;;;;;1.10;1.00;;;;;;;;;;5005531;28;20029;-75
2023/03/18 02:03:48;;;;;;;1.30;0.93;;;;;;;;;;5012755;28;20047;-75
2023/03/18 02:06:14;;;;;;;0.98;0.80;;;;;;;;;;5005653;28;20165;-76
2023/03/18 02:08:40;;;;;;;1.70;0.93;;;;;;;;;;5013569;28;20038;-76
2023/03/18 02:11:06;;;;;;;2.03;1.27;;;;;;;;;;5003557;28;20065;-75
2023/03/18 02:13:34;;;;;;;2.28;0.90;;;;;;;;;;4998826;28;20037;-75
2023/03/18 02:16:06;;;;;;;1.98;1.30;;;;;;;;;;5007375;28;20026;-75
2023/03/18 02:18:38;;;;;;;2.40;1.00;;;;;;;;;;5013574;28;20030;-75
2023/03/18 02:21:14;;;;;;;1.13;0.98;;;;;;;;;;5011951;28;20026;-75
2023/03/18 02:24:00;;;;;;;1.67;1.20;;;;;;;;;;5008185;28;20657;-75
2023/03/18 02:26:35;;;;;;;1.95;1.02;;;;;;;;;;5009069;28;20022;-76
2023/03/18 02:29:05;;;;;;;1.77;1.20;;;;;;;;;;5006532;28;20165;-76
2023/03/18 02:31:32;;;;;;;1.15;0.85;;;;;;;;;;5002850;28;20030;-75
2023/03/18 02:33:58;;;;;;;1.77;1.10;;;;;;;;;;5013660;28;20128;-75
2023/03/18 02:36:29;;;;;;;1.20;1.00;;;;;;;;;;5015905;28;20044;-75
2023/03/18 02:38:55;;;;;;;;;;;;;;;;;;5019379;28;20041;-76
2023/03/18 02:41:26;;;;;;;2.88;1.20;;;;;;;;;;5005410;28;19937;-75
2023/03/18 02:43:53;;;;;;;0.85;0.85;;;;;;;;;;5008475;28;20050;-76
2023/03/18 02:46:31;;;;;;;0.98;0.85;;;;;;;;;;5009498;28;20129;-75
2023/03/18 02:48:58;;;;;;;3.42;1.27;;;;;;;;;;5011764;28;20488;-76
2023/03/18 02:51:25;;;;;;;2.35;1.27;;;;;;;;;;5011745;28;20456;-76
2023/03/18 02:53:55;;;;;;;1.77;1.27;;;;;;;;;;5007080;28;20029;-76
2023/03/18 02:56:22;;;;;;;2.15;1.20;;;;;;;;;;5007260;28;20393;-75
2023/03/18 02:58:48;;;;;;;1.30;1.02;;;;;;;;;;5011080;28;20048;-76
2023/03/18 03:01:14;;;;;;;1.88;1.05;;;;;;;;;;5005217;28;20093;-75
2023/03/18 03:03:40;;;;;;;3.38;1.58;;;;;;;;;;5006227;28;20022;-76
2023/03/18 03:06:07;;;;;;;1.92;1.10;;;;;;;;;;5000903;28;20172;-76
2023/03/18 03:08:33;;;;;;;2.53;1.15;;;;;;;;;;5007847;28;20100;-75
2023/03/18 03:10:59;;;;;;;1.35;1.00;;;;;;;;;;5009067;28;20059;-76
2023/03/18 03:13:26;;;;;;;1.23;1.02;;;;;;;;;;5006153;28;20018;-76
2023/03/18 03:15:53;;;;;;;1.30;1.17;;;;;;;;;;5006458;28;20062;-76
2023/03/18 03:18:19;;;;;;;1.40;1.00;;;;;;;;;;5003545;28;20389;-76
2023/03/18 03:20:45;;;;;;;3.38;1.40;;;;;;;;;;5014865;28;20547;-76
2023/03/18 03:23:13;;;;;;;1.95;1.10;;;;;;;;;;5009035;28;20073;-76
2023/03/18 03:25:39;;;;;;;1.45;1.08;;;;;;;;;;5007925;28;20435;-76
2023/03/18 03:28:06;;;;;;;1.42;1.02;;;;;;;;;;5011731;28;20034;-76
2023/03/18 03:30:32;;;;;;;1.75;1.10;;;;;;;;;;5010340;28;20037;-76
2023/03/18 03:32:59;;;;;;;2.97;1.20;;;;;;;;;;5009907;28;20838;-76
2023/03/18 03:35:25;;;;;;;2.28;1.23;;;;;;;;;;5010772;28;20113;-76
2023/03/18 03:37:52;;;;;;;1.23;1.00;;;;;;;;;;5024214;28;20033;-76
2023/03/18 03:40:19;;;;;;;1.73;1.42;;;;;;;;;;5008446;28;20560;-76
2023/03/18 03:42:45;;;;;;;1.33;0.95;;;;;;;;;;5011462;28;20116;-76
2023/03/18 03:45:12;;;;;;;1.60;1.00;;;;;;;;;;5010087;28;20030;-76
2023/03/18 03:47:39;;;;;;;1.10;1.00;;;;;;;;;;5019577;28;20481;-76
2023/03/18 03:50:05;;;;;;;1.05;0.90;;;;;;;;;;5008870;28;20034;-75
2023/03/18 03:52:32;;;;;;;2.03;1.17;;;;;;;;;;5013181;28;20022;-76
2023/03/18 03:54:59;;;;;;;2.00;1.27;;;;;;;;;;5009821;28;20029;-76
2023/03/18 03:57:25;;;;;;;2.60;1.70;;;;;;;;;;5007316;28;20104;-76
2023/03/18 03:59:51;;;;;;;0.88;0.80;;;;;;;;;;5012790;28;20536;-76
2023/03/18 04:02:18;;;;;;;1.63;1.10;;;;;;;;;;5010217;28;20026;-76
2023/03/18 04:04:45;;;;;;;1.50;1.05;;;;;;;;;;5015533;28;20378;-76
2023/03/18 04:07:11;;;;;;;1.38;1.10;;;;;;;;;;5018442;28;20026;-76
2023/03/18 04:09:37;;;;;;;1.50;1.15;;;;;;;;;;5014741;28;20042;-76
2023/03/18 04:12:04;;;;;;;1.73;1.13;;;;;;;;;;5012772;28;20552;-76
2023/03/18 04:14:30;;;;;;;1.65;1.23;;;;;;;;;;5007940;28;20050;-76
2023/03/18 04:16:58;;;;;;;1.63;1.20;;;;;;;;;;5009840;28;20030;-76
2023/03/18 04:19:24;;;;;;;1.15;1.00;;;;;;;;;;5004259;28;20148;-76
2023/03/18 04:21:51;;;;;;;2.00;1.20;;;;;;;;;;5008443;28;20028;-76
2023/03/18 04:24:17;;;;;;;0.98;0.85;;;;;;;;;;5011486;28;20037;-76
2023/03/18 04:26:43;;;;;;;1.42;1.30;;;;;;;;;;5007472;28;20021;-75
2023/03/18 04:29:09;;;;;;;1.77;1.30;;;;;;;;;;5009778;28;20034;-76
2023/03/18 04:31:36;;;;;;;1.10;1.00;;;;;;;;;;5006717;28;20021;-76
2023/03/18 04:34:02;;;;;;;1.50;1.02;;;;;;;;;;5006357;28;20124;-76
2023/03/18 04:36:27;;;;;;;1.05;0.93;;;;;;;;;;5008257;28;20041;-76
2023/03/18 04:38:55;;;;;;;1.60;1.08;;;;;;;;;;5014365;28;20114;-76
2023/03/18 04:41:21;;;;;;;1.65;1.20;;;;;;;;;;5017389;28;20021;-76
2023/03/18 04:43:47;;;;;;;2.38;1.10;;;;;;;;;;5007081;28;20579;-75
2023/03/18 04:46:14;;;;;;;1.73;1.10;;;;;;;;;;5009713;28;20825;-76
2023/03/18 04:48:41;;;;;;;2.20;1.27;;;;;;;;;;5006539;28;20026;-76
2023/03/18 04:51:08;;;;;;;1.30;1.20;;;;;;;;;;5012179;28;20030;-76
2023/03/18 04:53:34;;;;;;;1.70;1.02;;;;;;;;;;5005119;28;20033;-76
2023/03/18 04:56:04;;;;;;;3.42;1.10;;;;;;;;;;5016332;28;20555;-76
2023/03/18 04:58:30;;;;;;;1.30;1.00;;;;;;;;;;5013398;28;20033;-76
2023/03/18 05:00:59;;;;;;;1.27;0.93;;;;;;;;;;5009781;28;20030;-76
2023/03/18 05:03:28;;;;;;;12.30;1.73;;;;;;;;;;5008803;28;20072;-76
2023/03/18 05:05:54;;;;;;;1.35;1.02;;;;;;;;;;5007366;28;20026;-77
2023/03/18 05:08:20;;;;;;;1.60;1.15;;;;;;;;;;5009259;28;20029;-76
2023/03/18 05:10:46;;;;;;;1.50;1.30;;;;;;;;;;5009734;28;20041;-76
2023/03/18 05:13:12;;;;;;;1.70;1.10;;;;;;;;;;5009821;28;20033;-76
2023/03/18 05:15:38;;;;;;;1.10;0.98;;;;;;;;;;5013865;28;20025;-77
2023/03/18 05:18:04;;;;;;;1.50;0.80;;;;;;;;;;5004461;28;20038;-76
2023/03/18 05:20:30;;;;;;;1.10;0.95;;;;;;;;;;5008919;28;20117;-76
2023/03/18 05:22:57;;;;;;;1.60;1.17;;;;;;;;;;5007265;28;20037;-75
2023/03/18 05:25:23;;;;;;;1.70;1.20;;;;;;;;;;5007157;28;20108;-76
2023/03/18 05:27:48;;;;;;;1.65;0.90;;;;;;;;;;5006865;28;20021;-75
2023/03/18 05:30:15;;;;;;;3.53;1.40;;;;;;;;;;5011867;28;20172;-76
2023/03/18 05:32:41;;;;;;;2.63;1.25;;;;;;;;;;5007842;28;20018;-76
2023/03/18 05:35:08;;;;;;;1.65;1.23;;;;;;;;;;5006091;28;20489;-80
2023/03/18 05:37:34;;;;;;;1.42;1.23;;;;;;;;;;5019189;28;20389;-75
2023/03/18 05:40:00;;;;;;;1.73;1.02;;;;;;;;;;5003994;28;20032;-78
2023/03/18 05:42:27;;;;;;;2.67;1.00;;;;;;;;;;4990357;28;20026;-76
2023/03/18 05:44:54;;;;;;;2.15;0.98;;;;;;;;;;5007456;28;20106;-76
2023/03/18 05:47:20;;;;;;;4.63;1.45;;;;;;;;;;5014064;28;20108;-76
2023/03/18 05:49:47;;;;;;;2.25;1.65;;;;;;;;;;5011746;28;20042;-76
2023/03/18 05:52:15;;;;;;;1.20;1.10;;;;;;;;;;5007949;28;20030;-76
2023/03/18 05:54:41;;;;;;;1.90;1.10;;;;;;;;;;5011107;28;20026;-78
2023/03/18 05:57:08;;;;;;;2.70;1.10;;;;;;;;;;5008821;28;20392;-78
2023/03/18 05:59:37;;;;;;;4.00;1.38;;;;;;;;;;5022559;28;20030;-78
2023/03/18 06:02:03;;;;;;;2.33;1.05;;;;;;;;;;5006620;28;20458;-78
2023/03/18 06:04:29;;;;;;;2.28;1.30;;;;;;;;;;5013407;28;20473;-77
2023/03/18 06:06:57;;;;;;;1.90;1.15;;;;;;;;;;5026870;28;20101;-79
2023/03/18 06:09:24;;;;;;;1.67;1.00;;;;;;;;;;5018151;28;20030;-78
2023/03/18 06:11:50;;;;;;;1.08;0.88;;;;;;;;;;5003526;28;20022;-79
2023/03/18 06:14:17;;;;;;;5.10;1.42;;;;;;;;;;5008135;28;20127;-78
2023/03/18 06:16:44;;;;;;;1.33;1.00;;;;;;;;;;5018482;28;20048;-78
2023/03/18 06:19:10;;;;;;;1.90;1.02;;;;;;;;;;5004836;28;20038;-78
2023/03/18 06:21:37;;;;;;;1.02;0.93;;;;;;;;;;5013242;28;20124;-79
2023/03/18 06:24:03;;;;;;;3.13;1.30;;;;;;;;;;5010319;28;20084;-78
2023/03/18 06:26:29;;;;;;;2.33;1.25;;;;;;;;;;5007740;28;20018;-78
2023/03/18 06:28:57;;;;;;;1.15;1.05;;;;;;;;;;5003870;28;20536;-78
2023/03/18 06:31:23;;;;;;;2.15;1.58;;;;;;;;;;5008652;28;20025;-78
2023/03/18 06:33:49;;;;;;;1.73;1.27;;;;;;;;;;5018776;28;20038;-78
2023/03/18 06:36:16;;;;;;;1.70;1.00;;;;;;;;;;5010346;28;20108;-78
2023/03/18 06:38:43;;;;;;;1.80;1.33;;;;;;;;;;5005252;28;20453;-77
2023/03/18 06:41:10;;;;;;;2.85;1.45;;;;;;;;;;5015413;28;20243;-77
2023/03/18 06:43:36;;;;;;;1.30;1.20;;;;;;;;;;4997007;28;20050;-77
2023/03/18 06:46:03;;;;;;;3.25;1.30;;;;;;;;;;5002755;28;20030;-78
2023/03/18 06:48:29;;;;;;;2.38;0.80;;;;;;;;;;5007116;28;20048;-81
2023/03/18 06:50:58;;;;;;;1.67;1.20;;;;;;;;;;5003653;28;20124;-82
2023/03/18 06:53:25;;;;;;;1.23;0.98;;;;;;;;;;5004076;28;20030;-80
2023/03/18 06:55:52;;;;;;;1.95;1.05;;;;;;;;;;5002791;28;20026;-83
2023/03/18 06:58:18;;;;;;;2.25;1.10;;;;;;;;;;5009544;28;20057;-82
2023/03/18 07:00:46;;;;;;;1.40;1.10;;;;;;;;;;5005823;28;20362;-81
2023/03/18 07:03:14;;;;;;;1.23;1.02;;;;;;;;;;5009317;28;20022;-76
2023/03/18 07:05:43;;;;;;;1.10;1.00;;;;;;;;;;5010754;28;20018;-81
2023/03/18 07:08:10;;;;;;;0.80;0.80;;;;;;;;;;5008766;28;20037;-83
2023/03/18 07:10:35;;;;;;;1.52;0.93;;;;;;;;;;5008734;28;20029;-82
2023/03/18 07:13:01;;;;;;;2.05;1.10;;;;;;;;;;5009487;28;20469;-81
2023/03/18 07:15:27;;;;;;;1.52;1.17;;;;;;;;;;5007654;28;20033;-81
2023/03/18 07:17:54;;;;;;;3.38;1.33;;;;;;;;;;5008111;28;20550;-86
2023/03/18 07:20:21;;;;;;;1.67;1.00;;;;;;;;;;5006988;28;20045;-85
2023/03/18 07:22:47;;;;;;;4.13;1.35;;;;;;;;;;5007509;28;20029;-85
2023/03/18 07:25:14;;;;;;;1.20;1.05;;;;;;;;;;5005673;28;20018;-84
2023/03/18 07:27:41;;;;;;;1.42;1.00;;;;;;;;;;5008235;28;20050;-84
2023/03/18 07:30:08;;;;;;;4.72;1.02;;;;;;;;;;5008448;28;20033;-83
2023/03/18 07:32:35;;;;;;;1.20;1.10;;;;;;;;;;5009187;28;20574;-86
2023/03/18 07:35:03;;;;;;;1.20;0.98;;;;;;;;;;5007428;28;20022;-84
2023/03/18 07:37:29;;;;;;;3.25;1.40;;;;;;;;;;5007958;28;20101;-79
2023/03/18 07:39:55;;;;;;;3.53;1.40;;;;;;;;;;5003725;28;20034;-80
2023/03/18 07:42:21;;;;;;;1.00;0.90;;;;;;;;;;5008971;28;20033;-79
2023/03/18 07:44:47;;;;;;;3.00;1.73;;;;;;;;;;5008235;28;20056;-79
2023/03/18 07:47:13;;;;;;;1.58;1.40;;;;;;;;;;5007135;28;20030;-80
2023/03/18 07:49:40;;;;;;;3.47;1.20;;;;;;;;;;5007974;28;20054;-78
2023/03/18 07:52:06;;;;;;;2.33;1.10;;;;;;;;;;5006590;28;20715;-80
2023/03/18 07:54:32;;;;;;;1.83;1.20;;;;;;;;;;5007345;28;20112;-80
2023/03/18 07:56:58;;;;;;;3.95;1.20;;;;;;;;;;5006720;28;20050;-80
2023/03/18 07:59:26;;;;;;;2.05;1.25;;;;;;;;;;5006952;28;20396;-80
2023/03/18 08:01:52;;;;;;;4.30;1.23;;;;;;;;;;5006130;28;20485;-79
2023/03/18 08:04:18;;;;;;;3.50;2.00;;;;;;;;;;5005600;28;20037;-80
2023/03/18 08:06:44;;;;;;;1.50;1.15;;;;;;;;;;5007457;28;20520;-80
2023/03/18 08:09:11;;;;;;;0.88;0.88;;;;;;;;;;5006478;28;20745;-80
2023/03/18 08:11:37;;;;;;;2.55;1.30;;;;;;;;;;5009842;28;20026;-81
2023/03/18 08:14:06;;;;;;;2.88;0.90;;;;;;;;;;5007100;28;20115;-80
2023/03/18 08:16:32;;;;;;;3.20;1.95;;;;;;;;;;5007747;28;20552;-80
2023/03/18 08:18:58;;;;;;;2.95;1.23;;;;;;;;;;5008984;28;20124;-80
2023/03/18 08:21:24;;;;;;;1.92;1.20;;;;;;;;;;5005345;28;20540;-79
2023/03/18 08:23:50;;;;;;;1.23;1.10;;;;;;;;;;5003397;28;20025;-80
2023/03/18 08:26:16;;;;;;;5.32;1.20;;;;;;;;;;5002182;28;20026;-80
2023/03/18 08:28:42;;;;;;;2.58;1.13;;;;;;;;;;4999741;28;20044;-82
2023/03/18 08:31:08;;;;;;;2.85;1.55;;;;;;;;;;5003144;28;20555;-80
2023/03/18 08:33:35;;;;;;;1.52;1.20;;;;;;;;;;4990493;28;20030;-79
2023/03/18 08:36:01;;;;;;;2.42;1.63;;;;;;;;;;4990882;28;20041;-79
2023/03/18 08:38:27;;;;;;;7.90;2.17;;;;;;;;;;4992471;28;20517;-78
2023/03/18 08:40:53;;;;;;;1.25;1.10;;;;;;;;;;4998400;28;20874;-80
2023/03/18 08:43:21;;;;;;;1.90;1.27;;;;;;;;;;4990719;28;20045;-76
2023/03/18 08:45:50;;;;;;;1.65;0.90;;;;;;;;;;4995864;28;20025;-77
2023/03/18 08:48:19;;;;;;;1.75;1.00;;;;;;;;;;4993644;28;20030;-75
2023/03/18 08:50:45;;;;;;;2.83;1.58;;;;;;;;;;4991921;28;20030;-76
2023/03/18 08:53:12;;;;;;;10.10;1.83;;;;;;;;;;4991154;28;20129;-77
2023/03/18 08:55:38;;;;;;;1.80;1.17;;;;;;;;;;4995117;28;20042;-76
2023/03/18 08:58:05;;;;;;;8.13;1.55;;;;;;;;;;4997164;28;20025;-76
2023/03/18 09:00:32;;;;;;;2.45;1.70;;;;;;;;;;4997702;28;20104;-77
2023/03/18 09:03:01;;;;;;;2.53;1.20;;;;;;;;;;4988336;28;20477;-78
2023/03/18 09:05:27;;;;;;;3.85;1.42;;;;;;;;;;4996043;28;20026;-79
2023/03/18 09:07:53;;;;;;;1.33;1.10;;;;;;;;;;4989996;28;20109;-80
2023/03/18 09:10:20;;;;;;;1.58;1.08;;;;;;;;;;4993095;28;20542;-79
2023/03/18 09:12:46;;;;;;;1.60;1.15;;;;;;;;;;4992989;28;20018;-82
2023/03/18 09:15:13;;;;;;;1.17;1.02;;;;;;;;;;4999282;28;20039;-81
2023/03/18 09:17:40;;;;;;;1.67;1.00;;;;;;;;;;4999132;28;20041;-81
2023/03/18 09:20:07;;;;;;;5.57;1.35;;;;;;;;;;4991441;28;20476;-79
2023/03/18 09:22:33;;;;;;;2.67;1.10;;;;;;;;;;4995126;28;20100;-79
2023/03/18 09:24:59;;;;;;;1.50;1.08;;;;;;;;;;4991307;28;20628;-80
2023/03/18 09:27:26;;;;;;;4.72;1.50;;;;;;;;;;4997973;28;20026;-78
2023/03/18 09:29:52;;;;;;;3.35;1.15;;;;;;;;;;4999390;28;20080;-80
2023/03/18 09:32:18;;;;;;;1.70;1.20;;;;;;;;;;4997383;28;20034;-80
2023/03/18 09:34:44;;;;;;;2.63;1.23;;;;;;;;;;4992566;28;20048;-83
2023/03/18 09:37:13;;;;;;;1.17;1.00;;;;;;;;;;4989835;28;20038;-83
2023/03/18 09:39:40;;;;;;;1.98;1.33;;;;;;;;;;4994031;28;20025;-83
2023/03/18 09:42:25;;;;;;;4.53;1.23;;;;;;;;;;4997609;28;20079;-82
2023/03/18 09:45:14;;;;;;;2.15;1.25;;;;;;;;;;4992672;28;20056;-81
2023/03/18 09:47:47;;;;;;;4.10;1.60;;;;;;;;;;4957898;28;20129;-78
2023/03/18 09:50:20;;;;;;;1.90;1.15;;;;;;;;;;4990195;28;20029;-77
2023/03/18 09:53:04;;;;;;;2.08;1.45;;;;;;;;;;4993151;28;20053;-78
2023/03/18 09:55:39;;;;;;;2.22;1.20;;;;;;;;;;4998415;28;20057;-78
2023/03/18 09:58:13;;;;;;;2.88;1.65;;;;;;;;;;5001030;28;20040;-77
2023/03/18 10:00:39;;;;;;;3.00;2.03;;;;;;;;;;5002205;28;20514;-78
2023/03/18 10:03:17;;;;;;;2.42;1.80;;;;;;;;;;4999709;28;20509;-78
2023/03/18 10:05:47;;;;;;;3.10;1.48;;;;;;;;;;4990935;28;20026;-76
2023/03/18 10:08:19;;;;;;;3.08;1.85;;;;;;;;;;4995130;28;20048;-80
2023/03/18 10:10:46;;;;;;;3.58;1.98;;;;;;;;;;4988785;28;20489;-78
2023/03/18 10:13:31;;;;;;;1.65;1.33;;;;;;;;;;4997714;28;20037;-79
2023/03/18 10:15:58;;;;;;;1.52;1.20;;;;;;;;;;4989554;28;20136;-78
2023/03/18 10:18:29;;;;;;;3.03;1.40;;;;;;;;;;4993132;28;20038;-78
2023/03/18 10:20:55;;;;;;;;;;;;;;;;;;5000920;28;20034;-79
2023/03/18 10:23:29;;;;;;;1.33;1.00;;;;;;;;;;4991075;28;20353;-82
2023/03/18 10:26:00;;;;;;;2.10;1.27;;;;;;;;;;4971477;28;20061;-82
2023/03/18 10:28:44;;;;;;;2.03;1.30;;;;;;;;;;4998787;28;20022;-83
2023/03/18 10:31:19;;;;;;;1.73;1.27;;;;;;;;;;4998545;28;20034;-83
2023/03/18 10:33:47;;;;;;;2.38;1.55;;;;;;;;;;4987715;28;20030;-83
2023/03/18 10:36:18;;;;;;;2.03;1.30;;;;;;;;;;4998037;28;20044;-85
2023/03/18 10:38:47;;;;;;;1.42;1.30;;;;;;;;;;4993701;28;20115;-77
2023/03/18 10:41:29;;;;;;;2.45;1.77;;;;;;;;;;4987553;28;20044;-81
2023/03/18 10:43:56;;;;;;;2.15;1.27;;;;;;;;;;4990468;28;20042;-79
2023/03/18 10:46:23;;;;;;;1.75;1.25;;;;;;;;;;4992833;28;20042;-81
2023/03/18 10:48:58;;;;;;;2.83;1.40;;;;;;;;;;4991228;28;20113;-79
2023/03/18 10:51:30;;;;;;;4.07;1.40;;;;;;;;;;4995575;28;20045;-81
2023/03/18 10:53:59;;;;;;;2.33;1.45;;;;;;;;;;4998705;28;20325;-83
2023/03/18 10:56:26;;;;;;;2.65;1.33;;;;;;;;;;5003000;28;20022;-79
2023/03/18 10:58:52;;;;;;;5.50;1.65;;;;;;;;;;5002802;28;20083;-80
2023/03/18 11:01:19;;;;;;;3.78;1.60;;;;;;;;;;4992486;28;20091;-79
2023/03/18 11:04:08;;;;;;;3.15;1.40;;;;;;;;;;4988560;28;20026;-79
2023/03/18 11:06:38;;;;;;;4.00;1.30;;;;;;;;;;4999506;28;20026;-73
2023/03/18 11:09:09;;;;;;;1.48;1.05;;;;;;;;;;4997865;28;20038;-81
2023/03/18 11:11:38;;;;;;;2.00;1.20;;;;;;;;;;4999453;28;20477;-76
2023/03/18 11:14:13;;;;;;;1.75;1.27;;;;;;;;;;4992819;28;20060;-74
2023/03/18 11:16:43;;;;;;;1.70;1.08;;;;;;;;;;4993201;28;20555;-76
2023/03/18 11:19:31;;;;;;;1.73;1.15;;;;;;;;;;4990322;28;20112;-77
2023/03/18 11:22:09;;;;;;;2.53;1.20;;;;;;;;;;4990060;28;20030;-76
2023/03/18 11:24:41;;;;;;;1.95;1.20;;;;;;;;;;4990685;28;20481;-76
2023/03/18 11:27:19;;;;;;;1.10;1.00;;;;;;;;;;4996836;28;20109;-76
2023/03/18 11:29:59;;;;;;;2.00;1.38;;;;;;;;;;4994153;28;20056;-76
2023/03/18 11:32:29;;;;;;;1.63;1.45;;;;;;;;;;5004246;28;20128;-76
2023/03/18 11:34:57;;;;;;;2.03;1.08;;;;;;;;;;5001746;28;20087;-76
2023/03/18 11:37:27;;;;;;;2.05;1.40;;;;;;;;;;5000778;28;20156;-76
2023/03/18 11:39:53;;;;;;;2.45;1.20;;;;;;;;;;5000494;28;20046;-76
2023/03/18 11:42:21;;;;;;;2.17;1.35;;;;;;;;;;5009025;28;20521;-78
2023/03/18 11:44:48;;;;;;;4.15;1.42;;;;;;;;;;5005463;28;20524;-76
2023/03/18 11:47:27;;;;;;;3.55;1.42;;;;;;;;;;4999678;28;20121;-76
2023/03/18 11:49:54;;;;;;;8.50;1.60;;;;;;;;;;5001838;28;20030;-76
2023/03/18 11:52:43;;;;;;;2.13;1.40;;;;;;;;;;5008721;28;20029;-76
2023/03/18 11:55:27;;;;;;;2.63;1.20;;;;;;;;;;5005012;28;20051;-76
2023/03/18 11:57:59;;;;;;;2.25;1.30;;;;;;;;;;5012869;28;20040;-76
2023/03/18 12:00:32;;;;;;;1.55;1.30;;;;;;;;;;5002004;28;20083;-76
2023/03/18 12:03:19;;;;;;;1.60;1.20;;;;;;;;;;5004431;28;20041;-76
2023/03/18 12:06:00;;;;;;;2.40;1.30;;;;;;;;;;5012552;28;20057;-76
2023/03/18 12:08:32;;;;;;;3.00;1.30;;;;;;;;;;5007705;28;20476;-76
2023/03/18 12:11:18;;;;;;;4.05;1.48;;;;;;;;;;5004132;28;20710;-76
2023/03/18 12:14:03;;;;;;;3.90;1.80;;;;;;;;;;5004619;28;20030;-76
2023/03/18 12:16:39;;;;;;;4.72;1.33;;;;;;;;;;5006677;28;20026;-77
2023/03/18 12:19:28;;;;;;;1.13;1.02;;;;;;;;;;5002327;28;20092;-77
2023/03/18 12:22:09;;;;;;;2.65;1.30;;;;;;;;;;4989826;28;20092;-76
2023/03/18 12:24:35;;;;;;;;;;;;;;;;;;5005038;28;20040;-76
2023/03/18 12:27:27;;;;;;;4.45;1.58;;;;;;;;;;5003317;28;19909;-77
2023/03/18 12:30:03;;;;;;;1.90;1.20;;;;;;;;;;4995988;28;20050;-76
2023/03/18 12:32:44;;;;;;;3.85;1.25;;;;;;;;;;5004085;28;20069;-76
2023/03/18 12:35:10;;;;;;;;;;;;;;;;;;4997316;28;20594;-76
2023/03/18 12:37:45;;;;;;;4.30;1.30;;;;;;;;;;5004710;28;19909;-75
2023/03/18 12:40:24;;;;;;;2.10;1.17;;;;;;;;;;5001229;28;20495;-76
2023/03/18 12:43:09;;;;;;;2.17;1.30;;;;;;;;;;4999634;28;20042;-76
2023/03/18 12:45:41;;;;;;;2.00;1.33;;;;;;;;;;5002020;28;20048;-77
2023/03/18 12:48:13;;;;;;;1.98;1.15;;;;;;;;;;4999696;28;20022;-77
2023/03/18 12:50:41;;;;;;;1.40;1.00;;;;;;;;;;5004331;28;20030;-77
2023/03/18 12:53:26;;;;;;;1.52;1.10;;;;;;;;;;5001862;28;20060;-77
2023/03/18 12:55:55;;;;;;;1.90;1.30;;;;;;;;;;4995864;28;20029;-77
2023/03/18 12:58:22;;;;;;;2.63;1.33;;;;;;;;;;5006795;28;20037;-77
2023/03/18 13:00:52;;;;;;;3.90;1.85;;;;;;;;;;5014176;28;20026;-77
2023/03/18 13:03:20;;;;;;;2.45;1.25;;;;;;;;;;5004434;28;20463;-77
2023/03/18 13:05:51;;;;;;;1.92;0.98;;;;;;;;;;5007468;28;20055;-77
2023/03/18 13:08:40;;;;;;;2.47;1.20;;;;;;;;;;4998605;28;20373;-77
2023/03/18 13:11:10;;;;;;;1.08;0.98;;;;;;;;;;4953613;28;20374;-76
2023/03/18 13:13:42;;;;;;;4.18;1.58;;;;;;;;;;5010817;28;20029;-76
2023/03/18 13:16:08;;;;;;;1.88;1.20;;;;;;;;;;4991918;28;20523;-77
2023/03/18 13:18:44;;;;;;;1.70;1.27;;;;;;;;;;4999180;28;20034;-77
2023/03/18 13:21:14;;;;;;;2.95;1.20;;;;;;;;;;5011863;28;20124;-77
2023/03/18 13:23:59;;;;;;;1.50;1.23;;;;;;;;;;4998494;28;20037;-77
2023/03/18 13:26:36;;;;;;;1.17;1.08;;;;;;;;;;5004453;28;20029;-77
2023/03/18 13:29:15;;;;;;;2.83;1.20;;;;;;;;;;4998118;28;20087;-77
2023/03/18 13:31:44;;;;;;;1.58;1.10;;;;;;;;;;5006873;28;20054;-77
2023/03/18 13:34:16;;;;;;;1.33;1.00;;;;;;;;;;4998856;28;20029;-77
2023/03/18 13:36:52;;;;;;;1.42;1.17;;;;;;;;;;5002779;28;20040;-77
2023/03/18 13:39:28;;;;;;;2.63;1.38;;;;;;;;;;4992875;28;20034;-77
2023/03/18 13:41:54;;;;;;;4.95;1.50;;;;;;;;;;5012346;28;20175;-76
2023/03/18 13:44:35;;;;;;;2.13;1.20;;;;;;;;;;5003148;28;20689;-77
2023/03/18 13:47:03;;;;;;;2.72;1.80;;;;;;;;;;5001474;28;20606;-77
2023/03/18 13:49:31;;;;;;;2.20;1.30;;;;;;;;;;4977551;28;20577;-77
2023/03/18 13:51:58;;;;;;;1.83;1.38;;;;;;;;;;5000220;28;20036;-77
2023/03/18 13:54:29;;;;;;;1.48;1.20;;;;;;;;;;5001322;28;20092;-77
2023/03/18 13:57:14;;;;;;;1.50;1.17;;;;;;;;;;4980518;28;20033;-77
2023/03/18 13:59:40;;;;;;;1.38;1.02;;;;;;;;;;4994508;28;20045;-77
2023/03/18 14:02:27;;;;;;;1.67;1.15;;;;;;;;;;5000279;28;20025;-77
2023/03/18 14:04:55;;;;;;;2.10;1.30;;;;;;;;;;4999299;28;20030;-77
2023/03/18 14:07:22;;;;;;;2.40;1.10;;;;;;;;;;5011295;28;20108;-77
2023/03/18 14:09:55;;;;;;;1.58;1.20;;;;;;;;;;5004951;28;20282;-77
2023/03/18 14:12:41;;;;;;;1.15;1.00;;;;;;;;;;5001000;28;20033;-77
2023/03/18 14:15:11;;;;;;;1.60;1.08;;;;;;;;;;5000483;28;20648;-77
2023/03/18 14:17:37;;;;;;;1.40;1.00;;;;;;;;;;5003612;28;20464;-77
2023/03/18 14:20:16;;;;;;;1.75;1.00;;;;;;;;;;4998207;28;20447;-77
2023/03/18 14:22:43;;;;;;;1.35;1.10;;;;;;;;;;5000026;28;20029;-77
2023/03/18 14:25:20;;;;;;;2.17;1.10;;;;;;;;;;4994868;28;20029;-77
2023/03/18 14:27:48;;;;;;;4.18;0.90;;;;;;;;;;5000419;28;20429;-77
2023/03/18 14:30:29;;;;;;;1.02;0.73;;;;;;;;;;5004860;28;20065;-77
2023/03/18 14:33:02;;;;;;;2.08;1.30;;;;;;;;;;4998669;28;20025;-77
2023/03/18 14:35:43;;;;;;;1.20;0.90;;;;;;;;;;5002388;28;20093;-77
2023/03/18 14:38:15;;;;;;;2.03;1.20;;;;;;;;;;5004749;28;20409;-77
2023/03/18 14:40:43;;;;;;;1.30;0.95;;;;;;;;;;5000173;28;20466;-77
2023/03/18 14:43:15;;;;;;;3.47;1.13;;;;;;;;;;5011344;28;20052;-77
2023/03/18 14:45:43;;;;;;;1.40;0.85;;;;;;;;;;5006664;28;20109;-77
2023/03/18 14:48:18;;;;;;;1.77;0.93;;;;;;;;;;5003683;28;20079;-77
2023/03/18 14:50:46;;;;;;;2.78;1.17;;;;;;;;;;5008814;28;20060;-77
2023/03/18 14:53:15;;;;;;;2.90;1.05;;;;;;;;;;5000839;28;20048;-77
2023/03/18 14:55:43;;;;;;;1.40;1.00;;;;;;;;;;5014105;28;20014;-77